Jerseyville, IL (62052)

12:23 AM CDT on March 30, 2017 (GMT -0500)
North East Jerseyville | | Change Station

Elev 623 ft 39.13 °N, 90.32 °W | Updated 14 seconds ago

Rain
Rain
59.4 °F
Feels Like 59.4 °F
N
2.5
Wind Variable Wind from South
Gusts 2.5 mph

Today
High -- | Low -- °F
--% Chance of Precip.
Yesterday
High -- | Low -- °F
Precip. -- in
Pressure 29.70 in
Visibility 10.0 miles
Clouds Scattered Clouds 10000 ft
Dew Point 53 °F
Humidity 80%
Rainfall 0.02 in
Snow Depth Not available.
6:48 AM 7:23 PM
Waxing Crescent, 6% visible
METAR KSET 300454Z AUTO 11012KT 10SM -RA SCT100 15/13 A2970 RMK AO2 LTG DSNT SW AND NW RAB04E19B51 SLP056 P0000 T01500128
Pressure 29.70 in
Visibility 10.0 miles
Clouds Scattered Clouds 10000 ft
Dew Point 53 °F
Humidity 80%
Rainfall 0.02 in
Snow Depth Not available.
6:48 AM 7:23 PM
Waxing Crescent, 6% visible
METAR KSET 300454Z AUTO 11012KT 10SM -RA SCT100 15/13 A2970 RMK AO2 LTG DSNT SW AND NW RAB04E19B51 SLP056 P0000 T01500128

Get Severe Weather Alerts

Thanks for signing up!

Be on the lookout for a verification email in your inbox.

You'll start receiving the daily forecast at 8 AM.

×

10-Day Weather Forecast

Almanac

Astronomy

Mar. 30, 2017 Rise Set
Actual Time
Civil Twilight
Nautical Twilight
Astronomical Twilight
Moon
Length of Visible Light
Length of Day
Tomorrow will be .
, % of the Moon is Illuminated

Today's Extremes

State Highs State Lows

Community

WunderPhotos

Upload Photos

1,962,540 photos uploaded!

WunderBlog® & News

Nearby

Air Quality

  Air Quality AQ Index Pollutant
Not available.

Snow Depth

Station Depth Elevation

Earthquake Activity

City Distance Mag. Time & Date
Minimum magnitude displayed is 2.5.

Earthquake Activity

City Distance Mag. Time & Date
Minimum magnitude displayed is 2.5.

Coastal Water Temperatures

Place Temperature

Stations

Nearby Weather Stations

Station Location Temp. Windchill Dew Point Humidity Wind Precip. Elev Updated Type
                   

Watches & Warnings

There are currently no watches in effect.